sensor_id;sensor_type;location;lat;lon;timestamp;P1;durP1;ratioP1;P2;durP2;ratioP2
67156;SDS011;54086;50.126;8.710;2022-12-29T00:02:11;6.80;;;2.20;;
67156;SDS011;54086;50.126;8.710;2022-12-29T00:04:37;7.60;;;2.33;;
67156;SDS011;54086;50.126;8.710;2022-12-29T00:07:03;5.27;;;1.97;;
67156;SDS011;54086;50.126;8.710;2022-12-29T00:09:29;7.00;;;2.28;;
67156;SDS011;54086;50.126;8.710;2022-12-29T00:11:55;8.53;;;2.90;;
67156;SDS011;54086;50.126;8.710;2022-12-29T00:14:20;6.77;;;1.90;;
67156;SDS011;54086;50.126;8.710;2022-12-29T00:17:04;7.13;;;2.60;;
67156;SDS011;54086;50.126;8.710;2022-12-29T00:19:30;6.57;;;2.30;;
67156;SDS011;54086;50.126;8.710;2022-12-29T00:22:14;6.20;;;2.00;;
67156;SDS011;54086;50.126;8.710;2022-12-29T00:24:58;5.43;;;2.20;;
67156;SDS011;54086;50.126;8.710;2022-12-29T00:27:33;7.35;;;2.03;;
67156;SDS011;54086;50.126;8.710;2022-12-29T00:30:20;5.10;;;2.03;;
67156;SDS011;54086;50.126;8.710;2022-12-29T00:33:11;5.70;;;2.10;;
67156;SDS011;54086;50.126;8.710;2022-12-29T00:36:00;6.18;;;2.10;;
67156;SDS011;54086;50.126;8.710;2022-12-29T00:38:30;6.82;;;2.30;;
67156;SDS011;54086;50.126;8.710;2022-12-29T00:41:23;7.07;;;2.55;;
67156;SDS011;54086;50.126;8.710;2022-12-29T00:44:07;6.07;;;2.15;;
67156;SDS011;54086;50.126;8.710;2022-12-29T00:46:38;6.40;;;2.00;;
67156;SDS011;54086;50.126;8.710;2022-12-29T00:49:06;6.22;;;2.08;;
67156;SDS011;54086;50.126;8.710;2022-12-29T00:51:52;6.22;;;2.15;;
67156;SDS011;54086;50.126;8.710;2022-12-29T00:54:19;6.57;;;2.10;;
67156;SDS011;54086;50.126;8.710;2022-12-29T00:56:46;6.45;;;2.83;;
67156;SDS011;54086;50.126;8.710;2022-12-29T00:59:15;5.90;;;2.10;;
67156;SDS011;54086;50.126;8.710;2022-12-29T01:01:41;5.50;;;2.13;;
67156;SDS011;54086;50.126;8.710;2022-12-29T01:04:07;7.13;;;2.58;;
67156;SDS011;54086;50.126;8.710;2022-12-29T01:06:33;6.20;;;2.10;;
67156;SDS011;54086;50.126;8.710;2022-12-29T01:09:00;7.93;;;2.63;;
67156;SDS011;54086;50.126;8.710;2022-12-29T01:11:44;6.15;;;2.10;;
67156;SDS011;54086;50.126;8.710;2022-12-29T01:14:09;5.30;;;1.90;;
67156;SDS011;54086;50.126;8.710;2022-12-29T01:16:34;5.27;;;2.27;;
67156;SDS011;54086;50.126;8.710;2022-12-29T01:19:01;5.80;;;1.95;;
67156;SDS011;54086;50.126;8.710;2022-12-29T01:21:27;7.45;;;2.13;;
67156;SDS011;54086;50.126;8.710;2022-12-29T01:23:52;6.57;;;2.10;;
67156;SDS011;54086;50.126;8.710;2022-12-29T01:26:18;6.70;;;1.97;;
67156;SDS011;54086;50.126;8.710;2022-12-29T01:28:43;5.40;;;1.67;;
67156;SDS011;54086;50.126;8.710;2022-12-29T01:31:10;5.67;;;2.20;;
67156;SDS011;54086;50.126;8.710;2022-12-29T01:33:37;5.37;;;2.10;;
67156;SDS011;54086;50.126;8.710;2022-12-29T01:36:06;6.10;;;1.85;;
67156;SDS011;54086;50.126;8.710;2022-12-29T01:38:34;5.85;;;1.98;;
67156;SDS011;54086;50.126;8.710;2022-12-29T01:41:00;4.88;;;1.90;;
67156;SDS011;54086;50.126;8.710;2022-12-29T01:43:39;6.30;;;2.00;;
67156;SDS011;54086;50.126;8.710;2022-12-29T01:46:20;5.35;;;2.00;;
67156;SDS011;54086;50.126;8.710;2022-12-29T01:49:14;7.97;;;3.67;;
67156;SDS011;54086;50.126;8.710;2022-12-29T01:51:49;5.63;;;2.00;;
67156;SDS011;54086;50.126;8.710;2022-12-29T01:54:34;6.45;;;1.80;;
67156;SDS011;54086;50.126;8.710;2022-12-29T01:57:08;5.88;;;1.88;;
67156;SDS011;54086;50.126;8.710;2022-12-29T01:59:39;4.15;;;1.55;;
67156;SDS011;54086;50.126;8.710;2022-12-29T02:02:10;5.28;;;1.75;;
67156;SDS011;54086;50.126;8.710;2022-12-29T02:04:36;6.60;;;1.60;;
67156;SDS011;54086;50.126;8.710;2022-12-29T02:07:10;5.30;;;1.60;;
67156;SDS011;54086;50.126;8.710;2022-12-29T02:09:39;4.70;;;1.90;;
67156;SDS011;54086;50.126;8.710;2022-12-29T02:12:06;6.43;;;1.80;;
67156;SDS011;54086;50.126;8.710;2022-12-29T02:14:32;5.05;;;1.60;;
67156;SDS011;54086;50.126;8.710;2022-12-29T02:19:36;5.33;;;1.87;;
67156;SDS011;54086;50.126;8.710;2022-12-29T02:22:31;5.18;;;1.65;;
67156;SDS011;54086;50.126;8.710;2022-12-29T02:25:34;5.22;;;1.70;;
67156;SDS011;54086;50.126;8.710;2022-12-29T02:28:46;3.97;;;1.30;;
67156;SDS011;54086;50.126;8.710;2022-12-29T02:31:37;6.40;;;1.60;;
67156;SDS011;54086;50.126;8.710;2022-12-29T02:34:21;5.68;;;1.75;;
67156;SDS011;54086;50.126;8.710;2022-12-29T02:37:13;5.05;;;1.45;;
67156;SDS011;54086;50.126;8.710;2022-12-29T02:42:33;3.67;;;1.40;;
67156;SDS011;54086;50.126;8.710;2022-12-29T02:45:28;3.45;;;1.45;;
67156;SDS011;54086;50.126;8.710;2022-12-29T02:51:01;3.67;;;1.20;;
67156;SDS011;54086;50.126;8.710;2022-12-29T02:53:29;4.90;;;1.10;;
67156;SDS011;54086;50.126;8.710;2022-12-29T02:56:15;3.60;;;1.30;;
67156;SDS011;54086;50.126;8.710;2022-12-29T02:58:40;3.03;;;1.25;;
67156;SDS011;54086;50.126;8.710;2022-12-29T03:01:14;6.00;;;1.40;;
67156;SDS011;54086;50.126;8.710;2022-12-29T03:09:46;4.00;;;1.40;;
67156;SDS011;54086;50.126;8.710;2022-12-29T03:12:26;3.97;;;1.20;;
67156;SDS011;54086;50.126;8.710;2022-12-29T03:15:18;3.00;;;1.30;;
67156;SDS011;54086;50.126;8.710;2022-12-29T03:18:10;3.28;;;1.23;;
67156;SDS011;54086;50.126;8.710;2022-12-29T03:21:00;4.60;;;1.20;;
67156;SDS011;54086;50.126;8.710;2022-12-29T03:23:35;4.87;;;1.40;;
67156;SDS011;54086;50.126;8.710;2022-12-29T03:26:04;5.15;;;1.30;;
67156;SDS011;54086;50.126;8.710;2022-12-29T03:28:35;3.65;;;1.30;;
67156;SDS011;54086;50.126;8.710;2022-12-29T03:31:08;3.83;;;1.60;;
67156;SDS011;54086;50.126;8.710;2022-12-29T03:33:35;4.68;;;1.50;;
67156;SDS011;54086;50.126;8.710;2022-12-29T03:36:05;6.23;;;1.30;;
67156;SDS011;54086;50.126;8.710;2022-12-29T03:38:47;3.00;;;1.20;;
67156;SDS011;54086;50.126;8.710;2022-12-29T03:41:27;4.30;;;1.35;;
67156;SDS011;54086;50.126;8.710;2022-12-29T03:43:56;3.47;;;1.13;;
67156;SDS011;54086;50.126;8.710;2022-12-29T03:46:22;3.63;;;1.23;;
67156;SDS011;54086;50.126;8.710;2022-12-29T03:48:47;3.80;;;1.30;;
67156;SDS011;54086;50.126;8.710;2022-12-29T03:51:12;5.23;;;1.40;;
67156;SDS011;54086;50.126;8.710;2022-12-29T03:53:38;4.90;;;1.50;;
67156;SDS011;54086;50.126;8.710;2022-12-29T03:56:04;5.00;;;1.30;;
67156;SDS011;54086;50.126;8.710;2022-12-29T03:58:30;4.60;;;1.55;;
67156;SDS011;54086;50.126;8.710;2022-12-29T04:00:55;3.57;;;1.40;;
67156;SDS011;54086;50.126;8.710;2022-12-29T04:03:21;5.43;;;1.58;;
67156;SDS011;54086;50.126;8.710;2022-12-29T04:05:46;6.53;;;1.40;;
67156;SDS011;54086;50.126;8.710;2022-12-29T04:08:12;6.43;;;1.70;;
67156;SDS011;54086;50.126;8.710;2022-12-29T04:10:37;4.23;;;1.47;;
67156;SDS011;54086;50.126;8.710;2022-12-29T04:13:02;5.73;;;1.53;;
67156;SDS011;54086;50.126;8.710;2022-12-29T04:15:28;3.42;;;1.27;;
67156;SDS011;54086;50.126;8.710;2022-12-29T04:17:53;4.27;;;1.47;;
67156;SDS011;54086;50.126;8.710;2022-12-29T04:20:19;4.93;;;1.57;;
67156;SDS011;54086;50.126;8.710;2022-12-29T04:23:06;4.50;;;1.52;;
67156;SDS011;54086;50.126;8.710;2022-12-29T04:25:32;5.40;;;1.42;;
67156;SDS011;54086;50.126;8.710;2022-12-29T04:27:58;6.43;;;1.90;;
67156;SDS011;54086;50.126;8.710;2022-12-29T04:30:24;5.27;;;1.43;;
67156;SDS011;54086;50.126;8.710;2022-12-29T04:32:50;5.32;;;1.50;;
67156;SDS011;54086;50.126;8.710;2022-12-29T04:35:16;5.00;;;1.50;;
67156;SDS011;54086;50.126;8.710;2022-12-29T04:37:41;5.07;;;1.63;;
67156;SDS011;54086;50.126;8.710;2022-12-29T04:40:07;4.77;;;1.57;;
67156;SDS011;54086;50.126;8.710;2022-12-29T04:42:36;4.72;;;1.50;;
67156;SDS011;54086;50.126;8.710;2022-12-29T04:45:04;5.13;;;1.30;;
67156;SDS011;54086;50.126;8.710;2022-12-29T04:47:30;4.93;;;1.48;;
67156;SDS011;54086;50.126;8.710;2022-12-29T04:49:55;5.37;;;1.30;;
67156;SDS011;54086;50.126;8.710;2022-12-29T04:52:21;5.00;;;1.50;;
67156;SDS011;54086;50.126;8.710;2022-12-29T04:54:49;9.10;;;2.00;;
67156;SDS011;54086;50.126;8.710;2022-12-29T04:57:16;4.23;;;1.50;;
67156;SDS011;54086;50.126;8.710;2022-12-29T04:59:44;5.40;;;1.50;;
67156;SDS011;54086;50.126;8.710;2022-12-29T05:02:09;4.72;;;1.65;;
67156;SDS011;54086;50.126;8.710;2022-12-29T05:04:34;6.77;;;1.60;;
67156;SDS011;54086;50.126;8.710;2022-12-29T05:07:00;6.30;;;1.40;;
67156;SDS011;54086;50.126;8.710;2022-12-29T05:09:28;6.27;;;1.70;;
67156;SDS011;54086;50.126;8.710;2022-12-29T05:11:54;4.72;;;1.30;;
67156;SDS011;54086;50.126;8.710;2022-12-29T05:14:23;4.63;;;1.50;;
67156;SDS011;54086;50.126;8.710;2022-12-29T05:16:48;4.95;;;1.58;;
67156;SDS011;54086;50.126;8.710;2022-12-29T05:19:14;4.50;;;1.47;;
67156;SDS011;54086;50.126;8.710;2022-12-29T05:21:39;4.03;;;1.37;;
67156;SDS011;54086;50.126;8.710;2022-12-29T05:24:04;4.57;;;1.70;;
67156;SDS011;54086;50.126;8.710;2022-12-29T05:26:33;4.63;;;1.37;;
67156;SDS011;54086;50.126;8.710;2022-12-29T05:28:58;5.55;;;1.52;;
67156;SDS011;54086;50.126;8.710;2022-12-29T05:31:24;4.82;;;1.58;;
67156;SDS011;54086;50.126;8.710;2022-12-29T05:33:50;5.53;;;1.20;;
67156;SDS011;54086;50.126;8.710;2022-12-29T05:36:15;4.73;;;1.50;;
67156;SDS011;54086;50.126;8.710;2022-12-29T05:38:41;4.35;;;1.33;;
67156;SDS011;54086;50.126;8.710;2022-12-29T05:41:06;7.57;;;1.47;;
67156;SDS011;54086;50.126;8.710;2022-12-29T05:43:31;2.87;;;1.17;;
67156;SDS011;54086;50.126;8.710;2022-12-29T05:45:57;4.10;;;1.40;;
67156;SDS011;54086;50.126;8.710;2022-12-29T05:48:22;4.20;;;1.43;;
67156;SDS011;54086;50.126;8.710;2022-12-29T05:50:51;4.17;;;1.50;;
67156;SDS011;54086;50.126;8.710;2022-12-29T05:53:16;4.05;;;1.40;;
67156;SDS011;54086;50.126;8.710;2022-12-29T05:55:43;4.60;;;1.50;;
67156;SDS011;54086;50.126;8.710;2022-12-29T05:58:09;3.05;;;1.30;;
67156;SDS011;54086;50.126;8.710;2022-12-29T06:00:34;3.63;;;1.30;;
67156;SDS011;54086;50.126;8.710;2022-12-29T06:03:00;5.27;;;1.67;;
67156;SDS011;54086;50.126;8.710;2022-12-29T06:05:25;4.25;;;1.52;;
67156;SDS011;54086;50.126;8.710;2022-12-29T06:07:51;5.13;;;1.80;;
67156;SDS011;54086;50.126;8.710;2022-12-29T06:10:16;4.60;;;1.87;;
67156;SDS011;54086;50.126;8.710;2022-12-29T06:12:42;3.75;;;1.73;;
67156;SDS011;54086;50.126;8.710;2022-12-29T06:15:07;4.27;;;1.60;;
67156;SDS011;54086;50.126;8.710;2022-12-29T06:17:33;4.07;;;1.48;;
67156;SDS011;54086;50.126;8.710;2022-12-29T06:19:59;4.13;;;1.33;;
67156;SDS011;54086;50.126;8.710;2022-12-29T06:22:24;4.00;;;1.30;;
67156;SDS011;54086;50.126;8.710;2022-12-29T06:24:49;4.73;;;1.30;;
67156;SDS011;54086;50.126;8.710;2022-12-29T06:27:15;3.70;;;1.30;;
67156;SDS011;54086;50.126;8.710;2022-12-29T06:29:40;4.43;;;1.20;;
67156;SDS011;54086;50.126;8.710;2022-12-29T06:32:06;5.57;;;1.33;;
67156;SDS011;54086;50.126;8.710;2022-12-29T06:34:32;6.65;;;1.50;;
67156;SDS011;54086;50.126;8.710;2022-12-29T06:36:57;5.37;;;1.50;;
67156;SDS011;54086;50.126;8.710;2022-12-29T06:39:23;5.07;;;1.40;;
67156;SDS011;54086;50.126;8.710;2022-12-29T06:41:51;3.80;;;1.57;;
67156;SDS011;54086;50.126;8.710;2022-12-29T06:44:17;4.77;;;1.30;;
67156;SDS011;54086;50.126;8.710;2022-12-29T06:46:42;5.13;;;1.50;;
67156;SDS011;54086;50.126;8.710;2022-12-29T06:49:07;4.33;;;1.63;;
67156;SDS011;54086;50.126;8.710;2022-12-29T06:51:33;4.27;;;1.40;;
67156;SDS011;54086;50.126;8.710;2022-12-29T06:53:58;5.67;;;1.50;;
67156;SDS011;54086;50.126;8.710;2022-12-29T06:56:23;5.77;;;1.50;;
67156;SDS011;54086;50.126;8.710;2022-12-29T06:58:49;5.07;;;1.60;;
67156;SDS011;54086;50.126;8.710;2022-12-29T07:01:14;4.55;;;1.52;;
67156;SDS011;54086;50.126;8.710;2022-12-29T07:03:41;5.83;;;1.97;;
67156;SDS011;54086;50.126;8.710;2022-12-29T07:06:07;7.97;;;1.80;;
67156;SDS011;54086;50.126;8.710;2022-12-29T07:08:32;6.00;;;1.87;;
67156;SDS011;54086;50.126;8.710;2022-12-29T07:10:58;4.43;;;1.67;;
67156;SDS011;54086;50.126;8.710;2022-12-29T07:13:23;4.60;;;1.53;;
67156;SDS011;54086;50.126;8.710;2022-12-29T07:15:48;8.50;;;2.22;;
67156;SDS011;54086;50.126;8.710;2022-12-29T07:18:14;4.77;;;1.40;;
67156;SDS011;54086;50.126;8.710;2022-12-29T07:20:39;5.33;;;1.80;;
67156;SDS011;54086;50.126;8.710;2022-12-29T07:23:04;6.17;;;2.00;;
67156;SDS011;54086;50.126;8.710;2022-12-29T07:25:30;4.70;;;1.77;;
67156;SDS011;54086;50.126;8.710;2022-12-29T07:27:55;6.77;;;1.70;;
67156;SDS011;54086;50.126;8.710;2022-12-29T07:30:21;7.00;;;2.00;;
67156;SDS011;54086;50.126;8.710;2022-12-29T07:32:46;6.40;;;1.80;;
67156;SDS011;54086;50.126;8.710;2022-12-29T07:35:11;6.13;;;1.77;;
67156;SDS011;54086;50.126;8.710;2022-12-29T07:37:37;5.50;;;1.90;;
67156;SDS011;54086;50.126;8.710;2022-12-29T07:40:03;6.70;;;1.83;;
67156;SDS011;54086;50.126;8.710;2022-12-29T07:42:29;6.05;;;1.90;;
67156;SDS011;54086;50.126;8.710;2022-12-29T07:44:55;5.63;;;1.53;;
67156;SDS011;54086;50.126;8.710;2022-12-29T07:47:20;5.10;;;1.70;;
67156;SDS011;54086;50.126;8.710;2022-12-29T07:49:45;6.93;;;2.03;;
67156;SDS011;54086;50.126;8.710;2022-12-29T07:52:11;5.70;;;1.90;;
67156;SDS011;54086;50.126;8.710;2022-12-29T07:54:36;4.97;;;1.67;;
67156;SDS011;54086;50.126;8.710;2022-12-29T07:57:02;4.70;;;1.60;;
67156;SDS011;54086;50.126;8.710;2022-12-29T07:59:28;5.70;;;1.90;;
67156;SDS011;54086;50.126;8.710;2022-12-29T08:01:55;6.05;;;2.00;;
67156;SDS011;54086;50.126;8.710;2022-12-29T08:04:20;6.30;;;1.80;;
67156;SDS011;54086;50.126;8.710;2022-12-29T08:06:46;5.57;;;1.90;;
67156;SDS011;54086;50.126;8.710;2022-12-29T08:09:12;5.07;;;1.63;;
67156;SDS011;54086;50.126;8.710;2022-12-29T08:11:37;8.55;;;2.70;;
67156;SDS011;54086;50.126;8.710;2022-12-29T08:14:03;6.53;;;1.87;;
67156;SDS011;54086;50.126;8.710;2022-12-29T08:16:29;6.72;;;2.10;;
67156;SDS011;54086;50.126;8.710;2022-12-29T08:18:54;5.97;;;2.30;;
67156;SDS011;54086;50.126;8.710;2022-12-29T08:21:20;5.13;;;2.07;;
67156;SDS011;54086;50.126;8.710;2022-12-29T08:23:45;6.47;;;2.10;;
67156;SDS011;54086;50.126;8.710;2022-12-29T08:26:12;5.70;;;2.13;;
67156;SDS011;54086;50.126;8.710;2022-12-29T08:28:37;6.30;;;2.30;;
67156;SDS011;54086;50.126;8.710;2022-12-29T08:31:03;7.10;;;2.17;;
67156;SDS011;54086;50.126;8.710;2022-12-29T08:33:28;7.17;;;2.07;;
67156;SDS011;54086;50.126;8.710;2022-12-29T08:36:01;6.00;;;2.17;;
67156;SDS011;54086;50.126;8.710;2022-12-29T08:38:28;5.85;;;2.00;;
67156;SDS011;54086;50.126;8.710;2022-12-29T08:40:54;6.17;;;2.30;;
67156;SDS011;54086;50.126;8.710;2022-12-29T08:43:20;5.90;;;1.90;;
67156;SDS011;54086;50.126;8.710;2022-12-29T08:45:45;6.70;;;2.60;;
67156;SDS011;54086;50.126;8.710;2022-12-29T08:48:11;8.27;;;2.30;;
67156;SDS011;54086;50.126;8.710;2022-12-29T08:50:36;5.27;;;1.77;;
67156;SDS011;54086;50.126;8.710;2022-12-29T08:53:02;5.53;;;2.50;;
67156;SDS011;54086;50.126;8.710;2022-12-29T08:55:27;7.33;;;2.70;;
67156;SDS011;54086;50.126;8.710;2022-12-29T08:57:52;6.23;;;2.20;;
67156;SDS011;54086;50.126;8.710;2022-12-29T09:00:18;8.90;;;2.90;;
67156;SDS011;54086;50.126;8.710;2022-12-29T09:02:43;6.32;;;2.70;;
67156;SDS011;54086;50.126;8.710;2022-12-29T09:05:09;7.53;;;2.40;;
67156;SDS011;54086;50.126;8.710;2022-12-29T09:07:35;6.27;;;2.30;;
67156;SDS011;54086;50.126;8.710;2022-12-29T09:10:00;7.93;;;2.57;;
67156;SDS011;54086;50.126;8.710;2022-12-29T09:12:26;5.90;;;2.40;;
67156;SDS011;54086;50.126;8.710;2022-12-29T09:14:51;8.88;;;3.03;;
67156;SDS011;54086;50.126;8.710;2022-12-29T09:17:16;8.30;;;2.07;;
67156;SDS011;54086;50.126;8.710;2022-12-29T09:20:00;9.02;;;2.75;;
67156;SDS011;54086;50.126;8.710;2022-12-29T09:22:26;7.87;;;3.10;;
67156;SDS011;54086;50.126;8.710;2022-12-29T09:24:51;8.17;;;3.00;;
67156;SDS011;54086;50.126;8.710;2022-12-29T09:27:17;7.80;;;2.60;;
67156;SDS011;54086;50.126;8.710;2022-12-29T09:29:42;6.97;;;2.33;;
67156;SDS011;54086;50.126;8.710;2022-12-29T09:32:10;7.50;;;2.80;;
67156;SDS011;54086;50.126;8.710;2022-12-29T09:34:36;6.90;;;2.67;;
67156;SDS011;54086;50.126;8.710;2022-12-29T09:37:01;8.07;;;2.80;;
67156;SDS011;54086;50.126;8.710;2022-12-29T09:39:27;9.52;;;2.85;;
67156;SDS011;54086;50.126;8.710;2022-12-29T09:41:58;7.10;;;2.57;;
67156;SDS011;54086;50.126;8.710;2022-12-29T09:45:15;8.48;;;3.03;;
67156;SDS011;54086;50.126;8.710;2022-12-29T09:47:38;8.35;;;3.05;;
67156;SDS011;54086;50.126;8.710;2022-12-29T09:50:09;7.37;;;2.60;;
67156;SDS011;54086;50.126;8.710;2022-12-29T09:52:47;7.40;;;2.75;;
67156;SDS011;54086;50.126;8.710;2022-12-29T09:55:17;10.35;;;4.03;;
67156;SDS011;54086;50.126;8.710;2022-12-29T09:57:47;10.45;;;2.70;;
67156;SDS011;54086;50.126;8.710;2022-12-29T10:00:21;7.88;;;3.15;;
67156;SDS011;54086;50.126;8.710;2022-12-29T10:03:03;8.93;;;3.97;;
67156;SDS011;54086;50.126;8.710;2022-12-29T10:11:34;7.13;;;2.72;;
67156;SDS011;54086;50.126;8.710;2022-12-29T10:14:22;7.28;;;2.58;;
67156;SDS011;54086;50.126;8.710;2022-12-29T10:25:12;4.78;;;1.35;;
67156;SDS011;54086;50.126;8.710;2022-12-29T10:27:42;5.70;;;1.70;;
67156;SDS011;54086;50.126;8.710;2022-12-29T10:30:12;5.77;;;1.43;;
67156;SDS011;54086;50.126;8.710;2022-12-29T10:32:39;3.55;;;1.27;;
67156;SDS011;54086;50.126;8.710;2022-12-29T10:35:21;6.00;;;1.38;;
67156;SDS011;54086;50.126;8.710;2022-12-29T10:41:05;5.10;;;1.75;;
67156;SDS011;54086;50.126;8.710;2022-12-29T10:43:44;5.30;;;1.80;;
67156;SDS011;54086;50.126;8.710;2022-12-29T10:46:32;6.18;;;1.33;;
67156;SDS011;54086;50.126;8.710;2022-12-29T10:49:00;6.45;;;1.50;;
67156;SDS011;54086;50.126;8.710;2022-12-29T10:51:33;4.72;;;1.30;;
67156;SDS011;54086;50.126;8.710;2022-12-29T11:01:53;4.45;;;1.67;;
67156;SDS011;54086;50.126;8.710;2022-12-29T11:06:57;3.87;;;1.40;;
67156;SDS011;54086;50.126;8.710;2022-12-29T11:09:27;4.28;;;1.40;;
67156;SDS011;54086;50.126;8.710;2022-12-29T11:11:54;4.80;;;1.33;;
67156;SDS011;54086;50.126;8.710;2022-12-29T11:14:30;5.15;;;1.30;;
67156;SDS011;54086;50.126;8.710;2022-12-29T11:16:57;5.88;;;1.48;;
67156;SDS011;54086;50.126;8.710;2022-12-29T11:19:31;6.13;;;1.50;;
67156;SDS011;54086;50.126;8.710;2022-12-29T11:24:53;5.45;;;1.50;;
67156;SDS011;54086;50.126;8.710;2022-12-29T11:27:20;4.68;;;1.50;;
67156;SDS011;54086;50.126;8.710;2022-12-29T11:29:48;4.53;;;1.40;;
67156;SDS011;54086;50.126;8.710;2022-12-29T11:32:18;6.05;;;1.10;;
67156;SDS011;54086;50.126;8.710;2022-12-29T11:34:48;5.20;;;1.20;;
67156;SDS011;54086;50.126;8.710;2022-12-29T11:37:18;3.03;;;1.33;;
67156;SDS011;54086;50.126;8.710;2022-12-29T11:40:15;5.60;;;1.70;;
67156;SDS011;54086;50.126;8.710;2022-12-29T11:45:24;5.13;;;1.63;;
67156;SDS011;54086;50.126;8.710;2022-12-29T11:47:58;3.63;;;1.40;;
67156;SDS011;54086;50.126;8.710;2022-12-29T11:50:31;4.28;;;1.25;;
67156;SDS011;54086;50.126;8.710;2022-12-29T12:01:17;5.95;;;1.38;;
67156;SDS011;54086;50.126;8.710;2022-12-29T12:04:13;6.03;;;1.58;;
67156;SDS011;54086;50.126;8.710;2022-12-29T12:06:45;7.32;;;1.30;;
67156;SDS011;54086;50.126;8.710;2022-12-29T12:09:19;3.92;;;1.30;;
67156;SDS011;54086;50.126;8.710;2022-12-29T12:12:08;4.47;;;1.40;;
67156;SDS011;54086;50.126;8.710;2022-12-29T12:14:48;7.32;;;1.77;;
67156;SDS011;54086;50.126;8.710;2022-12-29T12:17:23;4.20;;;1.30;;
67156;SDS011;54086;50.126;8.710;2022-12-29T12:20:20;5.78;;;1.65;;
67156;SDS011;54086;50.126;8.710;2022-12-29T12:23:38;4.60;;;1.50;;
67156;SDS011;54086;50.126;8.710;2022-12-29T12:25:51;4.20;;;1.20;;
67156;SDS011;54086;50.126;8.710;2022-12-29T12:30:58;5.10;;;1.58;;
67156;SDS011;54086;50.126;8.710;2022-12-29T12:33:40;6.82;;;1.65;;
67156;SDS011;54086;50.126;8.710;2022-12-29T12:39:11;6.33;;;1.57;;
67156;SDS011;54086;50.126;8.710;2022-12-29T12:56:51;5.40;;;1.67;;
67156;SDS011;54086;50.126;8.710;2022-12-29T12:59:30;4.70;;;1.33;;
67156;SDS011;54086;50.126;8.710;2022-12-29T13:07:28;3.93;;;1.67;;
67156;SDS011;54086;50.126;8.710;2022-12-29T13:10:22;4.00;;;1.60;;
67156;SDS011;54086;50.126;8.710;2022-12-29T13:15:54;4.43;;;1.30;;
67156;SDS011;54086;50.126;8.710;2022-12-29T13:21:11;4.97;;;1.50;;
67156;SDS011;54086;50.126;8.710;2022-12-29T13:24:09;6.13;;;1.38;;
67156;SDS011;54086;50.126;8.710;2022-12-29T13:30:02;5.32;;;1.88;;
67156;SDS011;54086;50.126;8.710;2022-12-29T13:38:20;5.95;;;1.60;;
67156;SDS011;54086;50.126;8.710;2022-12-29T13:40:53;5.53;;;1.55;;
67156;SDS011;54086;50.126;8.710;2022-12-29T13:43:21;5.97;;;1.70;;
67156;SDS011;54086;50.126;8.710;2022-12-29T13:45:55;7.22;;;1.75;;
67156;SDS011;54086;50.126;8.710;2022-12-29T13:48:28;5.87;;;1.70;;
67156;SDS011;54086;50.126;8.710;2022-12-29T13:51:04;3.28;;;1.10;;
67156;SDS011;54086;50.126;8.710;2022-12-29T13:56:10;3.80;;;1.33;;
67156;SDS011;54086;50.126;8.710;2022-12-29T13:58:49;3.97;;;1.20;;
67156;SDS011;54086;50.126;8.710;2022-12-29T14:01:24;8.85;;;1.90;;
67156;SDS011;54086;50.126;8.710;2022-12-29T14:03:57;7.55;;;1.50;;
67156;SDS011;54086;50.126;8.710;2022-12-29T14:06:31;7.18;;;1.60;;
67156;SDS011;54086;50.126;8.710;2022-12-29T14:09:03;4.82;;;1.60;;
67156;SDS011;54086;50.126;8.710;2022-12-29T14:11:31;9.00;;;1.60;;
67156;SDS011;54086;50.126;8.710;2022-12-29T14:13:59;7.07;;;1.38;;
67156;SDS011;54086;50.126;8.710;2022-12-29T14:16:36;7.93;;;2.03;;
67156;SDS011;54086;50.126;8.710;2022-12-29T14:19:09;5.90;;;1.50;;
67156;SDS011;54086;50.126;8.710;2022-12-29T14:21:51;5.28;;;1.60;;
67156;SDS011;54086;50.126;8.710;2022-12-29T14:27:00;4.93;;;1.48;;
67156;SDS011;54086;50.126;8.710;2022-12-29T14:34:50;5.30;;;1.48;;
67156;SDS011;54086;50.126;8.710;2022-12-29T14:42:43;8.32;;;1.80;;
67156;SDS011;54086;50.126;8.710;2022-12-29T14:47:38;4.55;;;1.20;;
67156;SDS011;54086;50.126;8.710;2022-12-29T14:52:56;4.72;;;1.40;;
67156;SDS011;54086;50.126;8.710;2022-12-29T14:58:22;7.27;;;1.50;;
67156;SDS011;54086;50.126;8.710;2022-12-29T15:01:15;5.20;;;1.67;;
67156;SDS011;54086;50.126;8.710;2022-12-29T15:04:06;5.55;;;1.50;;
67156;SDS011;54086;50.126;8.710;2022-12-29T15:06:41;5.68;;;1.38;;
67156;SDS011;54086;50.126;8.710;2022-12-29T15:09:12;6.25;;;1.27;;
67156;SDS011;54086;50.126;8.710;2022-12-29T15:12:01;5.40;;;1.03;;
67156;SDS011;54086;50.126;8.710;2022-12-29T15:14:38;4.63;;;1.80;;
67156;SDS011;54086;50.126;8.710;2022-12-29T15:17:26;4.97;;;1.40;;
67156;SDS011;54086;50.126;8.710;2022-12-29T15:19:53;7.15;;;1.73;;
67156;SDS011;54086;50.126;8.710;2022-12-29T15:22:20;6.88;;;1.38;;
67156;SDS011;54086;50.126;8.710;2022-12-29T15:24:46;7.23;;;1.40;;
67156;SDS011;54086;50.126;8.710;2022-12-29T15:27:16;6.35;;;1.60;;
67156;SDS011;54086;50.126;8.710;2022-12-29T15:29:45;6.40;;;1.33;;
67156;SDS011;54086;50.126;8.710;2022-12-29T15:34:40;6.43;;;1.60;;
67156;SDS011;54086;50.126;8.710;2022-12-29T15:37:06;7.20;;;1.50;;
67156;SDS011;54086;50.126;8.710;2022-12-29T15:39:32;6.68;;;1.63;;
67156;SDS011;54086;50.126;8.710;2022-12-29T15:42:07;3.93;;;1.20;;
67156;SDS011;54086;50.126;8.710;2022-12-29T15:44:42;4.78;;;1.20;;
67156;SDS011;54086;50.126;8.710;2022-12-29T15:47:22;4.13;;;1.10;;
67156;SDS011;54086;50.126;8.710;2022-12-29T15:49:50;6.68;;;1.73;;
67156;SDS011;54086;50.126;8.710;2022-12-29T15:52:20;2.92;;;1.30;;
67156;SDS011;54086;50.126;8.710;2022-12-29T15:54:47;6.53;;;1.50;;
67156;SDS011;54086;50.126;8.710;2022-12-29T15:57:25;5.63;;;1.35;;
67156;SDS011;54086;50.126;8.710;2022-12-29T15:59:52;6.25;;;1.73;;
67156;SDS011;54086;50.126;8.710;2022-12-29T16:02:18;6.47;;;1.30;;
67156;SDS011;54086;50.126;8.710;2022-12-29T16:04:46;7.95;;;1.52;;
67156;SDS011;54086;50.126;8.710;2022-12-29T16:09:59;4.93;;;1.23;;
67156;SDS011;54086;50.126;8.710;2022-12-29T16:12:35;4.78;;;1.52;;
67156;SDS011;54086;50.126;8.710;2022-12-29T16:15:05;4.38;;;1.40;;
67156;SDS011;54086;50.126;8.710;2022-12-29T16:17:41;5.85;;;1.27;;
67156;SDS011;54086;50.126;8.710;2022-12-29T16:22:42;6.10;;;1.10;;
67156;SDS011;54086;50.126;8.710;2022-12-29T16:25:17;4.88;;;1.40;;
67156;SDS011;54086;50.126;8.710;2022-12-29T16:27:46;5.00;;;1.20;;
67156;SDS011;54086;50.126;8.710;2022-12-29T16:32:57;6.88;;;1.20;;
67156;SDS011;54086;50.126;8.710;2022-12-29T16:35:27;5.65;;;1.45;;
67156;SDS011;54086;50.126;8.710;2022-12-29T16:38:12;5.93;;;1.20;;
67156;SDS011;54086;50.126;8.710;2022-12-29T16:40:39;5.70;;;1.20;;
67156;SDS011;54086;50.126;8.710;2022-12-29T16:43:36;7.15;;;1.77;;
67156;SDS011;54086;50.126;8.710;2022-12-29T16:46:21;6.05;;;2.70;;
67156;SDS011;54086;50.126;8.710;2022-12-29T16:48:52;7.20;;;2.40;;
67156;SDS011;54086;50.126;8.710;2022-12-29T16:51:28;10.07;;;3.70;;
67156;SDS011;54086;50.126;8.710;2022-12-29T16:53:58;12.95;;;5.50;;
67156;SDS011;54086;50.126;8.710;2022-12-29T16:56:25;12.88;;;5.55;;
67156;SDS011;54086;50.126;8.710;2022-12-29T16:58:58;7.15;;;2.30;;
67156;SDS011;54086;50.126;8.710;2022-12-29T17:01:27;7.88;;;2.00;;
67156;SDS011;54086;50.126;8.710;2022-12-29T17:03:53;8.63;;;3.90;;
67156;SDS011;54086;50.126;8.710;2022-12-29T17:06:26;8.45;;;3.50;;
67156;SDS011;54086;50.126;8.710;2022-12-29T17:08:51;7.30;;;2.22;;
67156;SDS011;54086;50.126;8.710;2022-12-29T17:11:25;6.20;;;1.90;;
67156;SDS011;54086;50.126;8.710;2022-12-29T17:14:19;7.88;;;2.22;;
67156;SDS011;54086;50.126;8.710;2022-12-29T17:16:45;6.88;;;2.10;;
67156;SDS011;54086;50.126;8.710;2022-12-29T17:19:18;9.48;;;3.80;;
67156;SDS011;54086;50.126;8.710;2022-12-29T17:21:45;5.32;;;1.90;;
67156;SDS011;54086;50.126;8.710;2022-12-29T17:24:15;7.80;;;1.60;;